createdAt,value
2022-09-01T00:01:42.225Z,18.00
2022-09-01T00:04:16.885Z,18.00
2022-09-01T00:06:44.100Z,17.90
2022-09-01T00:09:13.936Z,17.90
2022-09-01T00:11:42.696Z,17.90
2022-09-01T00:14:29.649Z,17.90
2022-09-01T00:17:00.373Z,17.90
2022-09-01T00:19:27.627Z,17.90
2022-09-01T00:21:54.379Z,17.90
2022-09-01T00:24:21.802Z,17.80
2022-09-01T00:26:48.932Z,17.80
2022-09-01T00:29:16.414Z,17.70
2022-09-01T00:31:44.022Z,17.70
2022-09-01T00:34:11.316Z,17.80
2022-09-01T00:36:38.086Z,17.70
2022-09-01T00:39:06.425Z,17.70
2022-09-01T00:41:38.179Z,17.70
2022-09-01T00:44:08.713Z,17.70
2022-09-01T00:46:54.992Z,17.60
2022-09-01T00:49:31.536Z,17.60
2022-09-01T00:52:13.521Z,17.60
2022-09-01T00:54:45.595Z,17.60
2022-09-01T00:57:13.856Z,17.60
2022-09-01T00:59:46.955Z,17.50
2022-09-01T01:02:13.852Z,17.60
2022-09-01T01:04:43.705Z,17.60
2022-09-01T01:07:11.862Z,17.60
2022-09-01T01:09:42.613Z,17.60
2022-09-01T01:12:14.006Z,17.70
2022-09-01T01:14:41.715Z,17.70
2022-09-01T01:17:12.818Z,17.70
2022-09-01T01:20:11.556Z,17.60
2022-09-01T01:23:00.021Z,17.80
2022-09-01T01:25:27.920Z,17.80
2022-09-01T01:28:06.565Z,17.80
2022-09-01T01:30:35.443Z,17.70
2022-09-01T01:33:02.705Z,17.70
2022-09-01T01:35:31.863Z,17.70
2022-09-01T01:37:58.754Z,17.70
2022-09-01T01:40:25.974Z,17.70
2022-09-01T01:42:54.326Z,17.60
2022-09-01T01:45:23.030Z,17.60
2022-09-01T01:47:53.491Z,17.60
2022-09-01T01:50:33.563Z,17.50
2022-09-01T01:53:02.885Z,17.50
2022-09-01T01:55:37.972Z,17.50
2022-09-01T01:58:05.243Z,17.50
2022-09-01T02:00:34.579Z,17.40
2022-09-01T02:03:01.575Z,17.40
2022-09-01T02:05:32.113Z,17.30
2022-09-01T02:08:09.653Z,17.30
2022-09-01T02:10:42.388Z,17.20
2022-09-01T02:13:16.161Z,17.30
2022-09-01T02:15:54.486Z,17.10
2022-09-01T02:18:24.933Z,17.10
2022-09-01T02:20:52.919Z,17.10
2022-09-01T02:23:23.472Z,17.10
2022-09-01T02:26:15.269Z,17.00
2022-09-01T02:28:42.760Z,17.00
2022-09-01T02:31:11.731Z,16.90
2022-09-01T02:33:39.831Z,17.00
2022-09-01T02:36:14.181Z,17.00
2022-09-01T02:38:45.907Z,16.90
2022-09-01T02:41:14.391Z,17.00
2022-09-01T02:43:43.475Z,17.00
2022-09-01T02:46:10.324Z,17.00
2022-09-01T02:48:39.296Z,17.00
2022-09-01T02:51:16.496Z,17.00
2022-09-01T02:53:44.352Z,17.00
2022-09-01T02:56:14.549Z,17.00
2022-09-01T02:58:46.135Z,16.90
2022-09-01T03:01:32.926Z,16.90
2022-09-01T03:04:09.010Z,17.00
2022-09-01T03:06:37.884Z,16.90
2022-09-01T03:09:07.396Z,16.90
2022-09-01T03:11:37.582Z,16.80
2022-09-01T03:14:05.557Z,16.80
2022-09-01T03:16:33.189Z,16.80
2022-09-01T03:19:00.162Z,16.80
2022-09-01T03:21:27.124Z,16.80
2022-09-01T03:23:54.168Z,16.70
2022-09-01T03:26:22.443Z,16.70
2022-09-01T03:28:51.280Z,16.70
2022-09-01T03:31:19.910Z,16.70
2022-09-01T03:33:46.757Z,16.60
2022-09-01T03:36:19.336Z,16.50
2022-09-01T03:38:48.804Z,16.60
2022-09-01T03:41:18.571Z,16.50
2022-09-01T03:43:48.242Z,16.60
2022-09-01T03:46:21.356Z,16.60
2022-09-01T03:48:51.699Z,16.60
2022-09-01T03:51:22.727Z,16.70
2022-09-01T03:53:54.335Z,16.70
2022-09-01T03:56:24.648Z,16.80
2022-09-01T03:58:52.081Z,16.80
2022-09-01T04:01:19.381Z,16.80
2022-09-01T04:03:47.532Z,16.80
2022-09-01T04:06:15.076Z,16.80
2022-09-01T04:08:42.947Z,16.80
2022-09-01T04:11:17.453Z,16.80
2022-09-01T04:13:46.966Z,16.80
2022-09-01T04:16:41.071Z,16.80
2022-09-01T04:19:19.764Z,16.90
2022-09-01T04:21:51.694Z,17.00
2022-09-01T04:24:19.119Z,17.00
2022-09-01T04:26:49.586Z,16.90
2022-09-01T04:29:19.321Z,17.00
2022-09-01T04:31:52.073Z,17.00
2022-09-01T04:34:19.729Z,17.00
2022-09-01T04:36:46.786Z,17.00
2022-09-01T04:39:16.578Z,17.00
2022-09-01T04:41:46.128Z,17.00
2022-09-01T04:44:16.737Z,17.00
2022-09-01T04:46:47.943Z,17.00
2022-09-01T04:49:19.476Z,17.00
2022-09-01T04:51:53.275Z,17.00
2022-09-01T04:54:22.556Z,17.00
2022-09-01T04:56:52.705Z,17.00
2022-09-01T04:59:21.745Z,16.90
2022-09-01T05:01:50.690Z,17.00
2022-09-01T05:04:27.685Z,16.90
2022-09-01T05:07:01.051Z,17.00
2022-09-01T05:09:35.466Z,17.00
2022-09-01T05:12:15.431Z,17.20
2022-09-01T05:14:47.119Z,17.00
2022-09-01T05:17:14.377Z,17.10
2022-09-01T05:19:43.250Z,17.10
2022-09-01T05:22:10.795Z,17.10
2022-09-01T05:24:41.880Z,17.20
2022-09-01T05:27:10.459Z,17.20
2022-09-01T05:29:38.524Z,17.20
2022-09-01T05:32:09.973Z,17.20
2022-09-01T05:34:38.818Z,17.30
2022-09-01T05:37:08.425Z,17.30
2022-09-01T05:39:37.972Z,17.40
2022-09-01T05:42:08.296Z,17.40
2022-09-01T05:44:44.403Z,17.40
2022-09-01T05:47:20.783Z,17.40
2022-09-01T05:49:49.741Z,17.50
2022-09-01T05:52:16.496Z,17.60
2022-09-01T05:54:43.550Z,17.60
2022-09-01T05:57:32.663Z,17.60
2022-09-01T05:59:57.553Z,17.60
2022-09-01T06:02:26.219Z,17.70
2022-09-01T06:04:57.176Z,17.80
2022-09-01T06:07:25.566Z,17.80
2022-09-01T06:09:53.633Z,17.90
2022-09-01T06:12:23.394Z,17.90
2022-09-01T06:14:53.539Z,17.90
2022-09-01T06:17:24.990Z,17.90
2022-09-01T06:19:55.670Z,18.00
2022-09-01T06:22:24.043Z,18.00
2022-09-01T06:24:58.069Z,18.00
2022-09-01T06:27:27.846Z,18.10
2022-09-01T06:29:55.195Z,18.10
2022-09-01T06:32:21.965Z,18.20
2022-09-01T06:34:51.737Z,18.20
2022-09-01T06:37:22.856Z,18.20
2022-09-01T06:39:50.718Z,18.30
2022-09-01T06:42:18.022Z,18.30
2022-09-01T06:44:46.021Z,18.30
2022-09-01T06:47:12.976Z,18.30
2022-09-01T06:49:41.071Z,18.40
2022-09-01T06:52:08.592Z,18.50
2022-09-01T06:54:35.567Z,18.60
2022-09-01T06:58:03.470Z,18.60
2022-09-01T06:59:52.586Z,18.70
2022-09-01T07:02:24.471Z,18.80
2022-09-01T07:05:07.992Z,18.80
2022-09-01T07:10:23.403Z,19.00
2022-09-01T07:13:07.822Z,19.00
2022-09-01T07:18:31.171Z,19.00
2022-09-01T07:21:07.077Z,19.00
2022-09-01T07:24:10.507Z,19.00
2022-09-01T07:26:27.020Z,18.90
2022-09-01T07:32:43.790Z,18.70
2022-09-01T07:34:38.679Z,18.70
2022-09-01T07:39:54.996Z,18.60
2022-09-01T07:45:27.699Z,18.70
2022-09-01T07:47:55.482Z,18.60
2022-09-01T07:50:39.907Z,18.50
2022-09-01T07:53:09.110Z,18.50
2022-09-01T07:55:39.979Z,18.50
2022-09-01T07:58:06.724Z,18.40
2022-09-01T08:00:34.261Z,18.50
2022-09-01T08:03:01.288Z,18.50
2022-09-01T08:05:28.972Z,18.50
2022-09-01T08:07:55.755Z,18.50
2022-09-01T08:10:22.732Z,18.60
2022-09-01T08:12:57.942Z,18.60
2022-09-01T08:16:06.488Z,18.60
2022-09-01T08:18:14.694Z,18.60
2022-09-01T08:20:47.246Z,18.60
2022-09-01T08:23:18.403Z,18.70
2022-09-01T08:25:47.082Z,18.80
2022-09-01T08:28:14.977Z,19.00
2022-09-01T08:30:51.987Z,19.10
2022-09-01T08:33:19.475Z,19.30
2022-09-01T08:35:48.659Z,19.30
2022-09-01T08:38:15.578Z,19.30
2022-09-01T08:40:43.945Z,19.40
2022-09-01T08:43:35.699Z,19.30
2022-09-01T08:46:14.085Z,19.20
2022-09-01T08:51:46.661Z,19.20
2022-09-01T08:54:32.189Z,19.20
2022-09-01T08:57:06.888Z,19.20
2022-09-01T08:59:33.549Z,19.20
2022-09-01T09:02:24.751Z,19.20
2022-09-01T09:05:17.298Z,19.20
2022-09-01T09:08:06.491Z,19.20
2022-09-01T09:10:49.249Z,19.30
2022-09-01T09:13:36.301Z,19.30
2022-09-01T09:16:17.462Z,19.40
2022-09-01T09:18:58.263Z,19.50
2022-09-01T09:21:30.267Z,19.50
2022-09-01T09:24:07.449Z,19.50
2022-09-01T09:26:49.328Z,19.50
2022-09-01T09:29:16.115Z,19.60
2022-09-01T09:31:52.453Z,19.70
2022-09-01T09:34:32.934Z,19.70
2022-09-01T09:37:27.487Z,19.80
2022-09-01T09:40:20.113Z,20.00
2022-09-01T09:42:56.025Z,20.10
2022-09-01T09:45:42.071Z,20.20
2022-09-01T09:48:27.056Z,20.20
2022-09-01T09:50:53.749Z,20.30
2022-09-01T09:53:26.228Z,20.20
2022-09-01T09:56:09.704Z,20.30
2022-09-01T09:58:42.767Z,20.30
2022-09-01T10:01:22.406Z,20.30
2022-09-01T10:03:54.248Z,20.20
2022-09-01T10:06:34.587Z,20.10
2022-09-01T10:09:15.632Z,20.20
2022-09-01T10:11:43.776Z,20.20
2022-09-01T10:14:52.158Z,20.20
2022-09-01T10:17:35.913Z,20.10
2022-09-01T10:20:21.197Z,20.10
2022-09-01T10:22:50.709Z,20.00
2022-09-01T10:25:24.681Z,20.10
2022-09-01T10:28:20.909Z,20.00
2022-09-01T10:30:48.377Z,20.00
2022-09-01T10:33:20.834Z,20.00
2022-09-01T10:35:51.866Z,20.10
2022-09-01T10:38:29.695Z,20.10
2022-09-01T10:41:07.914Z,20.10
2022-09-01T10:43:45.201Z,20.20
2022-09-01T10:46:39.044Z,20.30
2022-09-01T10:49:25.211Z,20.30
2022-09-01T10:51:56.942Z,20.30
2022-09-01T10:54:40.350Z,20.40
2022-09-01T10:57:42.282Z,20.40
2022-09-01T11:00:35.863Z,20.50
2022-09-01T11:03:40.913Z,20.50
2022-09-01T11:06:13.207Z,20.60
2022-09-01T11:09:06.665Z,20.70
2022-09-01T11:11:41.817Z,20.80
2022-09-01T11:14:26.814Z,20.90
2022-09-01T11:17:28.739Z,21.00
2022-09-01T11:20:40.801Z,21.00
2022-09-01T11:23:30.425Z,21.00
2022-09-01T11:26:35.816Z,21.10
2022-09-01T11:29:03.220Z,21.20
2022-09-01T11:31:41.992Z,21.20
2022-09-01T11:34:29.009Z,21.30
2022-09-01T11:37:00.205Z,21.50
2022-09-01T11:39:32.515Z,21.50
2022-09-01T11:42:21.123Z,21.70
2022-09-01T11:45:06.931Z,21.80
2022-09-01T11:47:44.653Z,21.90
2022-09-01T11:50:25.286Z,21.90
2022-09-01T11:52:55.008Z,22.00
2022-09-01T11:55:32.190Z,22.00
2022-09-01T11:57:59.515Z,22.00
2022-09-01T12:00:38.296Z,22.10
2022-09-01T12:03:26.648Z,22.20
2022-09-01T12:06:04.243Z,22.00
2022-09-01T12:08:35.424Z,22.20
2022-09-01T12:11:21.378Z,22.30
2022-09-01T12:14:11.834Z,22.20
2022-09-01T12:16:42.341Z,22.40
2022-09-01T12:19:22.116Z,22.40
2022-09-01T12:22:04.641Z,22.50
2022-09-01T12:24:35.426Z,22.30
2022-09-01T12:27:02.660Z,22.30
2022-09-01T12:29:32.190Z,22.40
2022-09-01T12:32:00.471Z,22.30
2022-09-01T12:34:33.355Z,22.40
2022-09-01T12:37:07.815Z,22.50
2022-09-01T12:39:38.456Z,22.60
2022-09-01T12:42:40.785Z,22.60
2022-09-01T12:45:10.647Z,22.60
2022-09-01T12:47:37.354Z,22.60
2022-09-01T12:50:27.274Z,22.60
2022-09-01T12:53:30.572Z,22.70
2022-09-01T12:56:04.627Z,22.90
2022-09-01T12:58:32.182Z,22.90
2022-09-01T13:01:01.093Z,23.00
2022-09-01T13:03:29.544Z,23.10
2022-09-01T13:06:01.964Z,23.10
2022-09-01T13:08:35.080Z,23.40
2022-09-01T13:11:14.336Z,23.10
2022-09-01T13:13:42.508Z,23.00
2022-09-01T13:16:13.940Z,23.00
2022-09-01T13:21:30.528Z,22.90
2022-09-01T13:23:57.346Z,22.90
2022-09-01T13:26:24.149Z,22.90
2022-09-01T13:28:51.596Z,23.20
2022-09-01T13:31:34.530Z,22.90
2022-09-01T13:34:11.035Z,23.00
2022-09-01T13:36:49.615Z,23.10
2022-09-01T13:39:19.217Z,23.00
2022-09-01T13:41:47.868Z,23.20
2022-09-01T13:44:17.209Z,23.20
2022-09-01T13:47:27.744Z,23.10
2022-09-01T13:52:19.669Z,23.20
2022-09-01T13:54:47.790Z,23.10
2022-09-01T13:57:16.574Z,23.30
2022-09-01T13:59:44.094Z,23.40
2022-09-01T14:02:11.108Z,23.40
2022-09-01T14:04:38.072Z,23.90
2022-09-01T14:07:04.932Z,24.00
2022-09-01T14:09:31.767Z,24.20
2022-09-01T14:11:59.392Z,24.20
2022-09-01T14:14:26.441Z,24.10
2022-09-01T14:16:54.021Z,24.10
2022-09-01T14:19:20.907Z,23.90
2022-09-01T14:21:47.634Z,23.80
2022-09-01T14:24:15.027Z,23.80
2022-09-01T14:26:42.532Z,23.60
2022-09-01T14:29:09.487Z,23.60
2022-09-01T14:31:37.786Z,23.60
2022-09-01T14:34:06.716Z,23.60
2022-09-01T14:36:33.478Z,23.80
2022-09-01T14:39:00.388Z,23.60
2022-09-01T14:44:26.478Z,23.70
2022-09-01T14:46:54.502Z,23.70
2022-09-01T14:49:22.445Z,23.70
2022-09-01T14:54:38.201Z,23.80
2022-09-01T14:59:53.180Z,24.00
2022-09-01T15:02:20.107Z,24.00
2022-09-01T15:04:46.842Z,24.10
2022-09-01T15:07:14.083Z,24.10
2022-09-01T15:09:40.746Z,23.70
2022-09-01T15:12:09.505Z,24.00
2022-09-01T15:14:37.160Z,24.00
2022-09-01T15:17:04.544Z,24.00
2022-09-01T15:19:31.220Z,24.10
2022-09-01T15:21:57.933Z,24.10
2022-09-01T15:24:24.595Z,24.20
2022-09-01T15:26:51.368Z,24.30
2022-09-01T15:29:18.063Z,24.30
2022-09-01T15:31:46.159Z,24.40
2022-09-01T15:34:13.776Z,24.40
2022-09-01T15:36:41.738Z,24.40
2022-09-01T15:39:10.202Z,24.40
2022-09-01T15:41:38.095Z,24.40
2022-09-01T15:44:06.947Z,24.50
2022-09-01T15:46:36.377Z,24.50
2022-09-01T15:49:06.546Z,24.40
2022-09-01T15:51:34.748Z,24.40
2022-09-01T15:54:08.427Z,24.40
2022-09-01T15:56:35.115Z,24.40
2022-09-01T15:59:03.776Z,24.40
2022-09-01T16:01:33.606Z,24.50
2022-09-01T16:04:01.355Z,24.30
2022-09-01T16:06:28.288Z,24.30
2022-09-01T16:08:55.541Z,24.30
2022-09-01T16:11:23.742Z,24.20
2022-09-01T16:13:53.689Z,24.20
2022-09-01T16:16:40.540Z,24.20
2022-09-01T16:19:39.270Z,24.20
2022-09-01T16:22:25.658Z,24.10
2022-09-01T16:24:57.799Z,24.00
2022-09-01T16:27:33.230Z,24.00
2022-09-01T16:30:09.976Z,23.90
2022-09-01T16:32:41.580Z,23.90
2022-09-01T16:35:08.730Z,23.80
2022-09-01T16:37:39.829Z,23.80
2022-09-01T16:40:33.197Z,23.80
2022-09-01T16:43:05.033Z,23.80
2022-09-01T16:45:42.707Z,23.70
2022-09-01T16:48:35.479Z,23.70
2022-09-01T16:51:27.453Z,23.70
2022-09-01T16:54:04.195Z,23.60
2022-09-01T16:56:44.447Z,23.50
2022-09-01T16:59:20.982Z,23.40
2022-09-01T17:01:52.292Z,23.40
2022-09-01T17:04:21.846Z,23.30
2022-09-01T17:06:56.497Z,23.30
2022-09-01T17:09:35.094Z,23.30
2022-09-01T17:12:27.953Z,23.20
2022-09-01T17:15:05.112Z,23.10
2022-09-01T17:17:44.511Z,23.20
2022-09-01T17:20:14.028Z,23.00
2022-09-01T17:22:49.398Z,23.20
2022-09-01T17:25:27.466Z,22.90
2022-09-01T17:28:01.617Z,22.90
2022-09-01T17:30:30.744Z,22.90
2022-09-01T17:33:18.530Z,22.90
2022-09-01T17:36:01.284Z,22.90
2022-09-01T17:38:54.062Z,22.90
2022-09-01T17:41:34.589Z,22.90
2022-09-01T17:44:17.919Z,22.80
2022-09-01T17:47:10.080Z,22.80
2022-09-01T17:50:05.014Z,22.70
2022-09-01T17:53:00.511Z,22.80
2022-09-01T17:55:53.005Z,22.60
2022-09-01T17:58:25.694Z,22.60
2022-09-01T18:01:01.795Z,22.50
2022-09-01T18:04:06.007Z,22.50
2022-09-01T18:06:42.755Z,22.50
2022-09-01T18:09:15.106Z,22.40
2022-09-01T18:11:57.767Z,22.50
2022-09-01T18:14:33.041Z,22.30
2022-09-01T18:17:15.399Z,22.20
2022-09-01T18:19:47.842Z,22.20
2022-09-01T18:22:18.721Z,22.10
2022-09-01T18:24:58.385Z,22.00
2022-09-01T18:27:28.826Z,21.90
2022-09-01T18:29:58.251Z,21.60
2022-09-01T18:32:31.753Z,21.60
2022-09-01T18:35:13.617Z,21.60
2022-09-01T18:37:59.185Z,21.50
2022-09-01T18:40:31.751Z,21.40
2022-09-01T18:43:18.227Z,21.30
2022-09-01T18:46:22.636Z,21.30
2022-09-01T18:49:34.791Z,21.20
2022-09-01T18:52:10.241Z,21.00
2022-09-01T18:58:50.292Z,21.00
2022-09-01T19:01:29.968Z,20.90
2022-09-01T19:04:10.370Z,20.80
2022-09-01T19:06:57.135Z,21.00
2022-09-01T19:20:12.482Z,20.60
2022-09-01T19:23:01.474Z,20.60
2022-09-01T19:32:34.434Z,20.50
2022-09-01T19:35:16.699Z,20.40
2022-09-01T19:37:50.685Z,20.40
2022-09-01T19:40:30.520Z,20.40
2022-09-01T19:43:06.652Z,20.40
2022-09-01T19:46:07.859Z,20.20
2022-09-01T19:49:13.145Z,20.30
2022-09-01T19:52:02.525Z,20.20
2022-09-01T19:59:53.455Z,20.20
2022-09-01T20:02:32.210Z,20.10
2022-09-01T20:05:08.493Z,20.10
2022-09-01T20:08:00.898Z,20.10
2022-09-01T20:10:44.645Z,20.20
2022-09-01T20:13:43.841Z,20.10
2022-09-01T20:16:26.134Z,20.00
2022-09-01T20:19:07.822Z,20.00
2022-09-01T20:21:39.976Z,20.30
2022-09-01T20:24:18.416Z,19.90
2022-09-01T20:26:58.291Z,19.80
2022-09-01T20:29:33.921Z,20.30
2022-09-01T20:32:04.017Z,20.10
2022-09-01T20:34:54.978Z,19.80
2022-09-01T20:37:26.880Z,19.80
2022-09-01T20:40:04.674Z,20.30
2022-09-01T20:42:44.055Z,19.40
2022-09-01T20:45:21.971Z,19.60
2022-09-01T20:47:54.611Z,19.60
2022-09-01T20:50:42.777Z,19.60
2022-09-01T20:54:05.637Z,19.60
2022-09-01T20:56:57.972Z,19.50
2022-09-01T20:59:47.426Z,19.50
2022-09-01T21:02:24.632Z,19.50
2022-09-01T21:05:28.175Z,19.40
2022-09-01T21:08:20.263Z,19.40
2022-09-01T21:11:39.165Z,19.40
2022-09-01T21:14:20.071Z,19.40
2022-09-01T21:17:06.901Z,19.40
2022-09-01T21:19:39.555Z,19.30
2022-09-01T21:22:08.416Z,19.40
2022-09-01T21:24:35.844Z,19.30
2022-09-01T21:27:07.580Z,19.50
2022-09-01T21:29:52.695Z,19.20
2022-09-01T21:32:20.200Z,19.10
2022-09-01T21:34:47.910Z,18.90
2022-09-01T21:37:15.178Z,19.20
2022-09-01T21:39:41.883Z,19.10
2022-09-01T21:42:10.742Z,19.00
2022-09-01T21:44:38.406Z,18.90
2022-09-01T21:47:05.434Z,19.20
2022-09-01T21:49:33.257Z,18.80
2022-09-01T21:52:00.156Z,18.90
2022-09-01T21:54:26.860Z,18.90
2022-09-01T21:56:53.703Z,18.80
2022-09-01T21:59:20.480Z,19.60
2022-09-01T22:01:47.919Z,18.80
2022-09-01T22:04:15.151Z,19.30
2022-09-01T22:06:41.938Z,18.90
2022-09-01T22:09:20.664Z,18.60
2022-09-01T22:11:49.220Z,18.60
2022-09-01T22:14:16.076Z,18.60
2022-09-01T22:16:42.890Z,18.50
2022-09-01T22:19:09.792Z,18.60
2022-09-01T22:21:37.323Z,18.50
2022-09-01T22:24:05.126Z,18.70
2022-09-01T22:26:32.910Z,18.40
2022-09-01T22:29:01.929Z,18.40
2022-09-01T22:31:30.403Z,18.40
2022-09-01T22:33:59.200Z,18.40
2022-09-01T22:36:31.897Z,18.30
2022-09-01T22:38:59.645Z,18.30
2022-09-01T22:41:29.989Z,18.30
2022-09-01T22:43:59.816Z,18.20
2022-09-01T22:46:32.606Z,18.40
2022-09-01T22:49:01.377Z,18.60
2022-09-01T22:51:31.167Z,18.20
2022-09-01T22:53:58.595Z,18.10
2022-09-01T22:56:28.099Z,18.10
2022-09-01T22:58:57.079Z,18.00
2022-09-01T23:01:33.110Z,17.90
2022-09-01T23:04:09.830Z,18.00
2022-09-01T23:06:46.365Z,18.00
2022-09-01T23:09:22.409Z,18.10
2022-09-01T23:11:52.861Z,17.90
2022-09-01T23:14:23.903Z,19.40
2022-09-01T23:16:51.885Z,17.70
2022-09-01T23:19:21.057Z,19.20
2022-09-01T23:21:51.453Z,18.30
2022-09-01T23:24:19.931Z,18.00
2022-09-01T23:26:47.564Z,17.80
2022-09-01T23:29:14.366Z,18.50
2022-09-01T23:31:41.207Z,17.50
2022-09-01T23:34:08.809Z,17.70
2022-09-01T23:36:37.018Z,18.00
2022-09-01T23:39:07.180Z,17.70
2022-09-01T23:41:37.151Z,17.70
2022-09-01T23:44:06.451Z,17.70
2022-09-01T23:46:41.875Z,17.70
2022-09-01T23:49:10.601Z,17.60
2022-09-01T23:51:39.102Z,17.60
2022-09-01T23:54:08.365Z,17.60
2022-09-01T23:56:36.751Z,17.70
2022-09-01T23:59:09.094Z,17.40
